Time;durP1;ratioP1;P1;durP2;ratioP2;P2;SDS_P1;SDS_P2;PMS_P1;PMS_P2;Temp;Humidity;BMP_temperature;BMP_pressure;BME280_temperature;BME280_humidity;BME280_pressure;Samples;Min_cycle;Max_cycle;Signal;HPM_P1;HPM_P2
2023/03/14 00:00:21;;;;;;;;;;;18.50;47.60;;;;;;5134752;27;20273;-68
2023/03/14 00:02:51;;;;;;;;;;;18.50;47.60;;;;;;5117613;27;20266;-68
2023/03/14 00:05:16;;;;;;;;;;;18.50;47.60;;;;;;5134678;27;19968;-68
2023/03/14 00:07:42;;;;;;;;;;;18.50;48.40;;;;;;5135643;27;20290;-68
2023/03/14 00:10:09;;;;;;;;;;;18.40;47.50;;;;;;5117045;27;19919;-69
2023/03/14 00:12:36;;;;;;;;;;;18.40;47.50;;;;;;5117365;27;20048;-68
2023/03/14 00:15:03;;;;;;;;;;;18.40;48.30;;;;;;5117160;27;20014;-68
2023/03/14 00:17:32;;;;;;;;;;;18.40;47.60;;;;;;5134384;27;19931;-68
2023/03/14 00:20:03;;;;;;;;;;;18.40;47.60;;;;;;5116426;27;20397;-68
2023/03/14 00:22:29;;;;;;;;;;;18.30;47.50;;;;;;5135318;27;19920;-68
2023/03/14 00:24:55;;;;;;;;;;;18.40;47.60;;;;;;5117010;27;19990;-68
2023/03/14 00:27:20;;;;;;;;;;;18.40;47.60;;;;;;5117135;27;19923;-68
2023/03/14 00:29:46;;;;;;;;;;;18.40;47.60;;;;;;5116928;27;19919;-68
2023/03/14 00:32:11;;;;;;;;;;;18.40;47.70;;;;;;5134093;27;19920;-68
2023/03/14 00:34:37;;;;;;;;;;;18.40;48.40;;;;;;5133904;27;19920;-68
2023/03/14 00:37:02;;;;;;;;;;;18.40;47.70;;;;;;5116857;27;19920;-68
2023/03/14 00:39:28;;;;;;;;;;;18.40;47.70;;;;;;5116937;27;20348;-68
2023/03/14 00:41:53;;;;;;;;;;;18.30;47.70;;;;;;5116392;27;19919;-69
2023/03/14 00:44:19;;;;;;;;;;;18.30;47.70;;;;;;5119140;27;19927;-69
2023/03/14 00:46:44;;;;;;;;;;;18.30;47.70;;;;;;5116158;27;19973;-70
2023/03/14 00:49:10;;;;;;;;;;;18.30;47.80;;;;;;5116597;27;19974;-70
2023/03/14 00:51:35;;;;;;;;;;;18.30;47.80;;;;;;5116065;27;19919;-70
2023/03/14 00:54:01;;;;;;;;;;;18.30;47.80;;;;;;5116602;27;19972;-70
2023/03/14 00:56:30;;;;;;;;;;;18.30;47.80;;;;;;5135135;27;19919;-70
2023/03/14 00:58:56;;;;;;;;;;;18.30;47.80;;;;;;5137170;27;19985;-70
2023/03/14 01:01:22;;;;;;;;;;;18.30;47.80;;;;;;5136964;27;19980;-71
2023/03/14 01:03:50;;;;;;;;;;;18.20;47.90;;;;;;5153962;27;20409;-71
2023/03/14 01:06:17;;;;;;;;;;;18.30;48.00;;;;;;5137719;27;19933;-70
2023/03/14 01:08:43;;;;;;;;;;;18.30;48.00;;;;;;5136783;27;19919;-71
2023/03/14 01:11:09;;;;;;;;;;;18.30;48.00;;;;;;5136500;27;20393;-71
2023/03/14 01:13:35;;;;;;;;;;;18.30;48.00;;;;;;5153784;27;19923;-76
2023/03/14 01:16:02;;;;;;;;;;;18.30;48.10;;;;;;5154980;27;19946;-71
2023/03/14 01:18:27;;;;;;;;;;;18.20;48.10;;;;;;5136033;27;19927;-70
2023/03/14 01:20:53;;;;;;;;;;;18.30;48.20;;;;;;5154895;27;19926;-71
2023/03/14 01:23:18;;;;;;;;;;;18.20;48.20;;;;;;5136294;27;19918;-70
2023/03/14 01:25:44;;;;;;;;;;;18.20;48.10;;;;;;5153858;27;20205;-70
2023/03/14 01:28:09;;;;;;;;;;;18.20;48.20;;;;;;5154442;27;20267;-70
2023/03/14 01:30:35;;;;;;;;;;;18.20;48.20;;;;;;5139987;27;19919;-71
2023/03/14 01:33:00;;;;;;;;;;;18.20;48.20;;;;;;5154624;27;19992;-70
2023/03/14 01:35:26;;;;;;;;;;;18.20;48.20;;;;;;5153668;27;20286;-71
2023/03/14 01:37:51;;;;;;;;;;;18.20;48.30;;;;;;5153297;27;19923;-71
2023/03/14 01:40:17;;;;;;;;;;;18.10;48.30;;;;;;5153326;27;19926;-71
2023/03/14 01:42:44;;;;;;;;;;;18.20;48.20;;;;;;5154354;27;19919;-71
2023/03/14 01:45:30;;;;;;;;;;;18.20;48.30;;;;;;5136290;27;19919;-71
2023/03/14 01:47:56;;;;;;;;;;;18.30;48.30;;;;;;5135529;27;19965;-71
2023/03/14 01:50:21;;;;;;;;;;;18.60;48.00;;;;;;5153491;27;19923;-71
2023/03/14 01:52:49;;;;;;;;;;;18.80;47.60;;;;;;5135723;27;20366;-71
2023/03/14 01:55:17;;;;;;;;;;;19.10;47.20;;;;;;5126711;27;19919;-71
2023/03/14 01:57:45;;;;;;;;;;;19.50;46.70;;;;;;5132224;27;19924;-71
2023/03/14 02:00:13;;;;;;;;;;;20.00;45.80;;;;;;5115105;27;19931;-74
2023/03/14 02:02:44;;;;;;;;;;;20.40;45.00;;;;;;5115229;27;19920;-70
2023/03/14 02:05:10;;;;;;;;;;;20.80;44.10;;;;;;5133458;27;19933;-71
2023/03/14 02:07:55;;;;;;;;;;;21.20;43.40;;;;;;5115018;28;19919;-71
2023/03/14 02:10:23;;;;;;;;;;;21.60;42.70;;;;;;5114664;27;19919;-71
2023/03/14 02:12:49;;;;;;;;;;;21.90;42.00;;;;;;5133383;27;20422;-72
2023/03/14 02:15:15;;;;;;;;;;;22.10;41.60;;;;;;5115177;27;19920;-71
2023/03/14 02:17:42;;;;;;;;;;;22.30;41.30;;;;;;5115162;28;20309;-71
2023/03/14 02:20:14;;;;;;;;;;;22.40;41.00;;;;;;5114494;28;20386;-71
2023/03/14 02:22:41;;;;;;;;;;;22.50;40.80;;;;;;5123358;28;20350;-70
2023/03/14 02:25:23;;;;;;;;;;;22.50;40.80;;;;;;5132286;28;19928;-70
2023/03/14 02:27:49;;;;;;;;;;;22.50;40.70;;;;;;5133502;28;19926;-71
2023/03/14 02:30:16;;;;;;;;;;;22.40;40.60;;;;;;5133203;28;20018;-71
2023/03/14 02:32:44;;;;;;;;;;;22.40;40.70;;;;;;5115073;28;19920;-74
2023/03/14 02:35:11;;;;;;;;;;;22.20;40.70;;;;;;5133033;28;19949;-72
2023/03/14 02:37:40;;;;;;;;;;;22.10;40.90;;;;;;5131740;28;19967;-76
2023/03/14 02:40:06;;;;;;;;;;;22.00;41.10;;;;;;5117445;27;20390;-71
2023/03/14 02:42:32;;;;;;;;;;;21.90;41.30;;;;;;5119122;27;19946;-71
2023/03/14 02:47:54;;;;;;;;;;;21.60;41.70;;;;;;5130732;27;20014;-76
2023/03/14 02:50:20;;;;;;;;;;;21.50;41.80;;;;;;5129673;28;19926;-71
2023/03/14 02:52:46;;;;;;;;;;;21.30;42.10;;;;;;5129739;28;19964;-71
2023/03/14 02:55:12;;;;;;;;;;;21.20;42.30;;;;;;5129540;28;20366;-71
2023/03/14 02:57:37;;;;;;;;;;;21.10;42.40;;;;;;5129339;28;19973;-71
2023/03/14 03:00:05;;;;;;;;;;;21.10;42.50;;;;;;5129271;28;19920;-70
2023/03/14 03:02:30;;;;;;;;;;;21.10;42.50;;;;;;5130405;27;19968;-70
2023/03/14 03:04:56;;;;;;;;;;;21.20;42.60;;;;;;5129220;28;20343;-71
2023/03/14 03:07:22;;;;;;;;;;;21.20;42.40;;;;;;5130489;27;19923;-71
2023/03/14 03:09:47;;;;;;;;;;;21.20;42.40;;;;;;5129070;28;19920;-72
2023/03/14 03:12:13;;;;;;;;;;;21.20;42.30;;;;;;5129333;28;19968;-71
2023/03/14 03:14:39;;;;;;;;;;;21.20;42.20;;;;;;5129019;28;19993;-71
2023/03/14 03:17:04;;;;;;;;;;;21.30;42.30;;;;;;5130259;27;19920;-70
2023/03/14 03:19:30;;;;;;;;;;;21.30;42.20;;;;;;5130598;27;19927;-70
2023/03/14 03:21:57;;;;;;;;;;;21.30;42.10;;;;;;5128761;28;19920;-71
2023/03/14 03:24:23;;;;;;;;;;;21.30;42.10;;;;;;5130330;27;20095;-71
2023/03/14 03:26:48;;;;;;;;;;;21.30;42.00;;;;;;5128687;28;20488;-71
2023/03/14 03:29:14;;;;;;;;;;;21.30;42.00;;;;;;5130112;27;20006;-71
2023/03/14 03:31:39;;;;;;;;;;;21.40;42.00;;;;;;5128600;28;19924;-71
2023/03/14 03:34:05;;;;;;;;;;;21.40;41.90;;;;;;5128508;28;19945;-70
2023/03/14 03:36:30;;;;;;;;;;;21.40;41.90;;;;;;5129798;27;19952;-71
2023/03/14 03:38:56;;;;;;;;;;;21.40;41.90;;;;;;5129843;27;19954;-71
2023/03/14 03:41:21;;;;;;;;;;;21.40;41.90;;;;;;5128506;28;19926;-70
2023/03/14 03:43:47;;;;;;;;;;;21.40;41.90;;;;;;5128392;28;19927;-71
2023/03/14 03:46:12;;;;;;;;;;;21.40;41.90;;;;;;5128068;28;19924;-70
2023/03/14 03:48:38;;;;;;;;;;;21.40;41.80;;;;;;5128258;28;19920;-71
2023/03/14 03:51:04;;;;;;;;;;;21.40;41.80;;;;;;5128370;28;19919;-71
2023/03/14 03:53:29;;;;;;;;;;;21.40;41.90;;;;;;5129439;27;19919;-71
2023/03/14 03:55:55;;;;;;;;;;;21.40;41.90;;;;;;5113888;28;19920;-70
2023/03/14 03:58:20;;;;;;;;;;;21.30;41.80;;;;;;5098018;28;19926;-71
2023/03/14 04:00:46;;;;;;;;;;;21.30;41.90;;;;;;5094111;28;19998;-70
2023/03/14 04:03:11;;;;;;;;;;;21.30;42.00;;;;;;5093942;28;20010;-70
2023/03/14 04:05:37;;;;;;;;;;;21.30;42.00;;;;;;5093876;28;20011;-71
2023/03/14 04:08:03;;;;;;;;;;;21.20;42.00;;;;;;5095103;28;19927;-71
2023/03/14 04:10:29;;;;;;;;;;;21.20;42.00;;;;;;5094224;28;19924;-71
2023/03/14 04:12:54;;;;;;;;;;;21.20;42.00;;;;;;5094134;28;19920;-71
2023/03/14 04:15:20;;;;;;;;;;;21.20;42.00;;;;;;5094195;28;20317;-71
2023/03/14 04:17:45;;;;;;;;;;;21.30;42.10;;;;;;5094049;28;20424;-71
2023/03/14 04:20:11;;;;;;;;;;;21.30;42.10;;;;;;5093744;28;20363;-72
2023/03/14 04:22:38;;;;;;;;;;;21.20;41.90;;;;;;5094982;28;20252;-72
2023/03/14 04:25:04;;;;;;;;;;;21.30;42.00;;;;;;5093531;28;19963;-71
2023/03/14 04:27:29;;;;;;;;;;;21.30;41.90;;;;;;5094866;28;20264;-71
2023/03/14 04:29:55;;;;;;;;;;;21.30;41.90;;;;;;5093464;28;19924;-71
2023/03/14 04:32:20;;;;;;;;;;;21.30;41.90;;;;;;5093379;28;20026;-71
2023/03/14 04:34:46;;;;;;;;;;;21.30;41.90;;;;;;5093270;28;19962;-71
2023/03/14 04:37:12;;;;;;;;;;;21.20;41.90;;;;;;5093646;28;19967;-71
2023/03/14 04:39:37;;;;;;;;;;;21.30;42.00;;;;;;5093537;28;20359;-71
2023/03/14 04:42:03;;;;;;;;;;;21.20;41.90;;;;;;5093780;28;19920;-71
2023/03/14 04:44:28;;;;;;;;;;;21.20;41.90;;;;;;5094029;28;20280;-72
2023/03/14 04:46:54;;;;;;;;;;;21.20;41.90;;;;;;5093035;28;19924;-72
2023/03/14 04:49:19;;;;;;;;;;;21.20;41.90;;;;;;5093326;28;19942;-71
2023/03/14 04:51:45;;;;;;;;;;;21.20;42.00;;;;;;5093065;28;20350;-71
2023/03/14 04:54:10;;;;;;;;;;;21.20;41.90;;;;;;5092883;28;19943;-72
2023/03/14 04:56:36;;;;;;;;;;;21.20;41.90;;;;;;5113080;28;19920;-71
2023/03/14 04:59:02;;;;;;;;;;;21.20;41.90;;;;;;5114706;28;19927;-71
2023/03/14 05:01:28;;;;;;;;;;;21.20;42.60;;;;;;5114567;28;20074;-71
2023/03/14 05:03:54;;;;;;;;;;;21.20;41.90;;;;;;5113473;28;20283;-71
2023/03/14 05:06:19;;;;;;;;;;;21.20;41.90;;;;;;5113350;28;20281;-71
2023/03/14 05:08:45;;;;;;;;;;;21.20;41.90;;;;;;5112855;28;19927;-71
2023/03/14 05:11:11;;;;;;;;;;;21.20;41.90;;;;;;5112820;28;19924;-71
2023/03/14 05:13:36;;;;;;;;;;;21.30;41.90;;;;;;5113398;28;20268;-72
2023/03/14 05:16:03;;;;;;;;;;;21.30;41.90;;;;;;5113264;28;19927;-71
2023/03/14 05:18:29;;;;;;;;;;;21.30;41.90;;;;;;5113367;28;20349;-72
2023/03/14 05:20:54;;;;;;;;;;;21.40;41.90;;;;;;5112729;28;20010;-71
2023/03/14 05:23:20;;;;;;;;;;;21.30;41.80;;;;;;5113094;28;20022;-71
2023/03/14 05:25:46;;;;;;;;;;;21.30;41.70;;;;;;5112927;28;19924;-71
2023/03/14 05:28:14;;;;;;;;;;;21.30;41.80;;;;;;5114013;28;20282;-71
2023/03/14 05:30:39;;;;;;;;;;;21.30;41.70;;;;;;5112881;28;19920;-71
2023/03/14 05:33:05;;;;;;;;;;;21.30;41.70;;;;;;5112548;28;20397;-71
2023/03/14 05:35:31;;;;;;;;;;;21.30;41.70;;;;;;5112719;28;19971;-71
2023/03/14 05:37:56;;;;;;;;;;;21.30;41.70;;;;;;5112819;28;19934;-71
2023/03/14 05:40:22;;;;;;;;;;;21.30;41.60;;;;;;5113044;28;19965;-71
2023/03/14 05:42:47;;;;;;;;;;;21.40;41.70;;;;;;5112483;28;20460;-71
2023/03/14 05:45:13;;;;;;;;;;;21.30;41.60;;;;;;5112500;28;20014;-71
2023/03/14 05:47:38;;;;;;;;;;;21.40;41.70;;;;;;5112090;28;19931;-72
2023/03/14 05:50:04;;;;;;;;;;;21.30;41.60;;;;;;5112882;28;20386;-72
2023/03/14 05:52:30;;;;;;;;;;;21.30;41.60;;;;;;5112459;28;20338;-72
2023/03/14 05:54:55;;;;;;;;;;;21.40;41.70;;;;;;5106095;28;20371;-72
2023/03/14 05:57:24;;;;;;;;;;;21.30;41.60;;;;;;5092094;28;19927;-72
2023/03/14 05:59:49;;;;;;;;;;;21.40;41.60;;;;;;5092125;28;19943;-71
2023/03/14 06:02:15;;;;;;;;;;;21.40;41.60;;;;;;5092022;28;20376;-72
2023/03/14 06:04:40;;;;;;;;;;;21.40;41.60;;;;;;5093162;28;20242;-72
2023/03/14 06:07:06;;;;;;;;;;;21.40;41.60;;;;;;5091833;28;19924;-72
2023/03/14 06:09:31;;;;;;;;;;;21.40;41.60;;;;;;5091580;28;19926;-71
2023/03/14 06:11:57;;;;;;;;;;;21.40;41.60;;;;;;5091639;28;19998;-71
2023/03/14 06:14:23;;;;;;;;;;;21.40;41.60;;;;;;5091935;28;19920;-72
2023/03/14 06:16:48;;;;;;;;;;;21.40;41.60;;;;;;5091917;28;20256;-71
2023/03/14 06:19:14;;;;;;;;;;;21.40;41.60;;;;;;5091499;28;20275;-73
2023/03/14 06:21:40;;;;;;;;;;;21.40;41.60;;;;;;5091246;28;20012;-72
2023/03/14 06:24:05;;;;;;;;;;;21.40;41.60;;;;;;5091592;28;19920;-72
2023/03/14 06:26:31;;;;;;;;;;;21.40;41.50;;;;;;5091360;28;19935;-72
2023/03/14 06:28:56;;;;;;;;;;;21.40;41.50;;;;;;5092667;28;19969;-72
2023/03/14 06:31:22;;;;;;;;;;;21.40;41.50;;;;;;5092543;28;19928;-72
2023/03/14 06:33:47;;;;;;;;;;;21.40;41.50;;;;;;5092493;28;20398;-72
2023/03/14 06:36:13;;;;;;;;;;;21.40;41.50;;;;;;5090471;28;20388;-72
2023/03/14 06:38:38;;;;;;;;;;;21.40;41.50;;;;;;5090023;28;19962;-72
2023/03/14 06:41:05;;;;;;;;;;;21.40;41.60;;;;;;5090004;28;20295;-72
2023/03/14 06:43:33;;;;;;;;;;;21.40;41.50;;;;;;5089925;28;19946;-72
2023/03/14 06:45:59;;;;;;;;;;;21.40;41.50;;;;;;5089285;28;19924;-71
2023/03/14 06:48:24;;;;;;;;;;;21.40;41.50;;;;;;5089661;28;19927;-71
2023/03/14 06:50:50;;;;;;;;;;;21.50;41.60;;;;;;5089006;28;19928;-76
2023/03/14 06:53:15;;;;;;;;;;;21.40;41.50;;;;;;5093605;28;19919;-79
2023/03/14 06:55:41;;;;;;;;;;;21.40;41.90;;;;;;5103096;28;20359;-76
2023/03/14 06:58:07;;;;;;;;;;;21.40;43.00;;;;;;5109575;28;19927;-76
2023/03/14 07:00:33;;;;;;;;;;;21.40;42.60;;;;;;5098638;28;20018;-76
2023/03/14 07:02:59;;;;;;;;;;;21.40;43.40;;;;;;5090156;28;20438;-76
2023/03/14 07:05:24;;;;;;;;;;;21.30;43.10;;;;;;5090866;28;19920;-77
2023/03/14 07:07:50;;;;;;;;;;;21.30;43.20;;;;;;5091703;28;19924;-72
2023/03/14 07:10:16;;;;;;;;;;;21.30;43.30;;;;;;5085908;28;19920;-73
2023/03/14 07:12:41;;;;;;;;;;;21.30;43.30;;;;;;5093276;28;19927;-81
2023/03/14 07:15:07;;;;;;;;;;;21.30;43.50;;;;;;5106091;28;19919;-75
2023/03/14 07:17:33;;;;;;;;;;;21.40;43.40;;;;;;5088617;28;20019;-74
2023/03/14 07:19:59;;;;;;;;;;;21.40;43.50;;;;;;5092864;28;19920;-73
2023/03/14 07:22:24;;;;;;;;;;;21.30;43.70;;;;;;5072111;28;19924;-76
2023/03/14 07:24:50;;;;;;;;;;;21.30;43.40;;;;;;5076933;28;19997;-74
2023/03/14 07:27:15;;;;;;;;;;;21.10;43.00;;;;;;5085383;28;20442;-77
2023/03/14 07:29:41;;;;;;;;;;;21.00;43.30;;;;;;5094500;28;19920;-71
2023/03/14 07:32:07;;;;;;;;;;;20.80;43.40;;;;;;5087840;28;19968;-72
2023/03/14 07:34:33;;;;;;;;;;;20.80;43.90;;;;;;5092070;28;19928;-73
2023/03/14 07:36:59;;;;;;;;;;;20.80;44.00;;;;;;5096250;28;19931;-72
2023/03/14 07:39:24;;;;;;;;;;;20.90;44.20;;;;;;5090260;28;20421;-70
2023/03/14 07:41:50;;;;;;;;;;;20.90;44.00;;;;;;5097542;28;19924;-72
2023/03/14 07:44:16;;;;;;;;;;;20.90;44.20;;;;;;5095049;28;19924;-72
2023/03/14 07:46:41;;;;;;;;;;;21.00;44.40;;;;;;5090711;28;19928;-72
2023/03/14 07:49:07;;;;;;;;;;;21.20;44.40;;;;;;5102838;28;19989;-71
2023/03/14 07:51:32;;;;;;;;;;;21.30;44.20;;;;;;5099508;28;20394;-72
2023/03/14 07:53:58;;;;;;;;;;;21.30;44.00;;;;;;5100717;28;19919;-76
2023/03/14 07:56:23;;;;;;;;;;;21.50;43.70;;;;;;5091454;28;20564;-79
2023/03/14 07:58:49;;;;;;;;;;;21.60;43.50;;;;;;5101910;28;20357;-79
2023/03/14 08:01:14;;;;;;;;;;;21.80;43.20;;;;;;5095642;28;19981;-79
2023/03/14 08:03:40;;;;;;;;;;;21.90;42.80;;;;;;5095328;28;19928;-77
2023/03/14 08:06:06;;;;;;;;;;;22.00;42.70;;;;;;5095658;28;20409;-76
2023/03/14 08:08:31;;;;;;;;;;;22.10;42.30;;;;;;5096343;28;20015;-72
2023/03/14 08:11:02;;;;;;;;;;;22.10;42.30;;;;;;5094934;28;19920;-72
2023/03/14 08:13:27;;;;;;;;;;;22.10;42.10;;;;;;5094342;28;20316;-72
2023/03/14 08:15:53;;;;;;;;;;;22.00;42.10;;;;;;5096767;28;19997;-73
2023/03/14 08:18:18;;;;;;;;;;;22.00;42.10;;;;;;5090198;28;19977;-77
2023/03/14 08:20:44;;;;;;;;;;;21.90;42.10;;;;;;5095987;28;20425;-70
2023/03/14 08:23:09;;;;;;;;;;;21.80;42.10;;;;;;5084053;28;20429;-73
2023/03/14 08:25:35;;;;;;;;;;;21.70;42.30;;;;;;5099564;28;19924;-76
2023/03/14 08:28:00;;;;;;;;;;;21.50;42.30;;;;;;5098766;28;19994;-72
2023/03/14 08:30:26;;;;;;;;;;;21.40;42.30;;;;;;5096024;28;20038;-70
2023/03/14 08:32:56;;;;;;;;;;;21.30;42.40;;;;;;5091881;28;19924;-76
2023/03/14 08:35:21;;;;;;;;;;;21.20;42.60;;;;;;5092947;28;20297;-78
2023/03/14 08:37:47;;;;;;;;;;;21.10;42.60;;;;;;5091518;28;20051;-69
2023/03/14 08:40:12;;;;;;;;;;;21.00;42.80;;;;;;5091188;28;20189;-71
2023/03/14 08:42:39;;;;;;;;;;;20.90;43.10;;;;;;5086622;27;19924;-74
2023/03/14 08:45:05;;;;;;;;;;;20.90;43.10;;;;;;5094252;28;20361;-73
2023/03/14 08:47:31;;;;;;;;;;;20.90;43.00;;;;;;5089669;28;20310;-71
2023/03/14 08:49:57;;;;;;;;;;;21.00;42.90;;;;;;5093054;28;19932;-71
2023/03/14 08:52:22;;;;;;;;;;;21.10;42.60;;;;;;5089161;28;19938;-71
2023/03/14 08:54:48;;;;;;;;;;;21.20;42.20;;;;;;5094940;28;19930;-73
2023/03/14 08:57:14;;;;;;;;;;;21.40;41.90;;;;;;5099898;28;20270;-72
2023/03/14 08:59:39;;;;;;;;;;;21.50;41.90;;;;;;5094284;28;19946;-73
2023/03/14 09:02:05;;;;;;;;;;;21.60;41.40;;;;;;5088032;28;19927;-75
2023/03/14 09:04:31;;;;;;;;;;;21.70;41.10;;;;;;5094647;28;19928;-70
2023/03/14 09:06:57;;;;;;;;;;;21.80;40.90;;;;;;5093881;28;20310;-70
2023/03/14 09:09:24;;;;;;;;;;;21.90;40.80;;;;;;5093214;28;19973;-73
2023/03/14 09:11:49;;;;;;;;;;;21.90;40.50;;;;;;5093761;28;19934;-72
2023/03/14 09:14:17;;;;;;;;;;;22.00;41.30;;;;;;5097270;28;19932;-76
2023/03/14 09:16:43;;;;;;;;;;;22.00;40.50;;;;;;5091803;28;20045;-71
2023/03/14 09:19:09;;;;;;;;;;;22.00;40.30;;;;;;5089814;28;19977;-72
2023/03/14 09:21:34;;;;;;;;;;;21.90;40.30;;;;;;5094080;28;19970;-71
2023/03/14 09:24:00;;;;;;;;;;;21.90;40.40;;;;;;5087280;28;20360;-70
2023/03/14 09:26:25;;;;;;;;;;;21.80;40.40;;;;;;5093638;28;20379;-71
2023/03/14 09:28:51;;;;;;;;;;;21.70;40.70;;;;;;5093581;28;20181;-74
2023/03/14 09:31:16;;;;;;;;;;;21.60;40.90;;;;;;5093252;28;19988;-79
2023/03/14 09:33:42;;;;;;;;;;;21.60;40.90;;;;;;5091086;28;19931;-73
2023/03/14 09:36:07;;;;;;;;;;;21.50;40.80;;;;;;5090836;28;19927;-70
2023/03/14 09:38:33;;;;;;;;;;;21.50;40.90;;;;;;5094252;28;19965;-70
2023/03/14 09:41:00;;;;;;;;;;;21.50;39.90;;;;;;5107292;28;19919;-70
2023/03/14 09:43:29;;;;;;;;;;;21.30;39.60;;;;;;5098409;28;19985;-70
2023/03/14 09:45:55;;;;;;;;;;;21.20;39.30;;;;;;5091686;28;20002;-70
2023/03/14 09:48:21;;;;;;;;;;;21.10;39.50;;;;;;5098694;28;20098;-70
2023/03/14 09:50:49;;;;;;;;;;;21.10;39.80;;;;;;5090423;28;19923;-73
2023/03/14 09:53:17;;;;;;;;;;;21.20;40.00;;;;;;5088355;28;19951;-73
2023/03/14 09:55:47;;;;;;;;;;;21.30;39.80;;;;;;5096156;28;19920;-68
2023/03/14 09:58:14;;;;;;;;;;;21.50;39.70;;;;;;5091880;28;21479;-70
2023/03/14 10:00:39;;;;;;;;;;;21.60;39.60;;;;;;5098151;28;19928;-72
2023/03/14 10:05:54;;;;;;;;;;;21.80;39.30;;;;;;5115923;27;19915;-72
2023/03/14 10:08:20;;;;;;;;;;;21.90;39.10;;;;;;5130344;27;19923;-71
2023/03/14 10:10:45;;;;;;;;;;;21.90;38.90;;;;;;5098831;28;19924;-69
2023/03/14 10:13:21;;;;;;;;;;;21.90;38.80;;;;;;5100961;28;19971;-74
2023/03/14 10:15:50;;;;;;;;;;;22.00;38.90;;;;;;5093573;28;20583;-68
2023/03/14 10:18:16;;;;;;;;;;;22.00;38.80;;;;;;5096498;28;19927;-69
2023/03/14 10:20:43;;;;;;;;;;;22.00;38.70;;;;;;5099571;28;19935;-71
2023/03/14 10:26:02;;;;;;;;;;;21.90;38.60;;;;;;5067737;28;20388;-70
2023/03/14 10:28:30;;;;;;;;;;;21.80;38.70;;;;;;5050966;28;19936;-68
2023/03/14 10:30:55;;;;;;;;;;;21.80;38.80;;;;;;5054376;28;19924;-70
2023/03/14 10:33:23;;;;;;;;;;;21.70;38.90;;;;;;5052683;28;20292;-72
2023/03/14 10:35:53;;;;;;;;;;;21.70;38.90;;;;;;5054761;28;19986;-72
2023/03/14 10:38:19;;;;;;;;;;;21.60;38.90;;;;;;5053934;28;20414;-69
2023/03/14 10:40:49;;;;;;;;;;;21.60;39.00;;;;;;5054553;28;19929;-74
2023/03/14 10:43:17;;;;;;;;;;;21.50;39.10;;;;;;5066583;28;19924;-73
2023/03/14 10:45:51;;;;;;;;;;;21.50;39.20;;;;;;5049811;28;19929;-67
2023/03/14 10:48:20;;;;;;;;;;;21.50;39.40;;;;;;5052948;28;19928;-71
2023/03/14 10:51:05;;;;;;;;;;;21.50;39.30;;;;;;5051716;28;19920;-72
2023/03/14 10:53:50;;;;;;;;;;;21.50;39.30;;;;;;5050098;28;19925;-69
2023/03/14 10:56:18;;;;;;;;;;;21.50;39.40;;;;;;5049907;28;19967;-67
2023/03/14 10:58:45;;;;;;;;;;;21.50;39.30;;;;;;5051729;28;19960;-67
2023/03/14 11:03:58;;;;;;;;;;;21.50;39.20;;;;;;5071544;27;19976;-69
2023/03/14 11:06:29;;;;;;;;;;;21.50;39.30;;;;;;5067440;28;20015;-76
2023/03/14 11:09:05;;;;;;;;;;;21.50;39.20;;;;;;5066197;28;19924;-73
2023/03/14 11:11:31;;;;;;;;;;;21.60;39.00;;;;;;5100821;28;19928;-77
2023/03/14 11:14:04;;;;;;;;;;;21.70;38.80;;;;;;5099851;28;19935;-77
2023/03/14 11:22:12;;;;;;;;;;;21.80;38.90;;;;;;5087793;27;19934;-78
2023/03/14 11:24:47;;;;;;;;;;;21.80;39.00;;;;;;5096251;28;19935;-73
2023/03/14 11:27:17;;;;;;;;;;;21.80;38.90;;;;;;5094285;28;20434;-73
2023/03/14 11:30:02;;;;;;;;;;;21.80;39.00;;;;;;5085237;28;19958;-73
2023/03/14 11:32:41;;;;;;;;;;;21.90;38.60;;;;;;5091736;28;19939;-71
2023/03/14 11:35:14;;;;;;;;;;;21.90;38.70;;;;;;5086895;28;19955;-72
2023/03/14 11:37:45;;;;;;;;;;;21.90;38.90;;;;;;5093023;28;19920;-76
2023/03/14 11:40:20;;;;;;;;;;;22.00;38.10;;;;;;5092192;28;20357;-74
2023/03/14 11:42:49;;;;;;;;;;;22.00;38.10;;;;;;5123272;27;20418;-74
2023/03/14 11:45:18;;;;;;;;;;;22.00;37.40;;;;;;5088670;28;19924;-76
2023/03/14 11:47:46;;;;;;;;;;;21.90;36.80;;;;;;5080796;28;19954;-74
2023/03/14 11:50:16;;;;;;;;;;;21.90;35.90;;;;;;5087802;28;20015;-75
2023/03/14 11:52:48;;;;;;;;;;;21.90;36.70;;;;;;5084406;28;20321;-71
2023/03/14 11:58:21;;;;;;;;;;;22.00;36.70;;;;;;5089267;27;19942;-75
2023/03/14 12:00:48;;;;;;;;;;;22.00;36.60;;;;;;5079910;28;20364;-75
2023/03/14 12:06:00;;;;;;;;;;;22.00;35.70;;;;;;5101721;27;1885143;-74
2023/03/14 12:14:25;;;;;;;;;;;22.00;36.20;;;;;;5098982;27;20025;-79
2023/03/14 12:16:56;;;;;;;;;;;22.10;36.00;;;;;;5083207;28;20009;-76
2023/03/14 12:22:21;;;;;;;;;;;22.00;36.10;;;;;;5067763;28;20390;-75
2023/03/14 12:24:50;;;;;;;;;;;22.00;36.10;;;;;;5051356;28;20362;-73
2023/03/14 12:27:35;;;;;;;;;;;22.00;36.00;;;;;;5068550;28;19920;-74
2023/03/14 12:30:01;;;;;;;;;;;22.00;35.80;;;;;;5070349;28;19929;-73
2023/03/14 12:32:26;;;;;;;;;;;22.00;35.80;;;;;;5053590;28;20412;-79
2023/03/14 12:34:52;;;;;;;;;;;22.00;35.90;;;;;;5046214;28;19928;-74
2023/03/14 12:37:38;;;;;;;;;;;22.00;35.70;;;;;;5057807;28;20276;-72
2023/03/14 12:40:23;;;;;;;;;;;22.00;35.70;;;;;;5049118;28;19929;-77
2023/03/14 12:42:58;;;;;;;;;;;22.00;35.90;;;;;;5056129;28;19929;-73
2023/03/14 12:48:22;;;;;;;;;;;22.00;35.40;;;;;;5098892;27;20296;-73
2023/03/14 12:51:04;;;;;;;;;;;22.00;35.20;;;;;;5054016;28;20465;-73
2023/03/14 12:53:50;;;;;;;;;;;22.00;35.20;;;;;;5080620;28;19920;-71
2023/03/14 12:59:14;;;;;;;;;;;22.00;36.00;;;;;;5066168;27;19949;-72
2023/03/14 13:01:56;;;;;;;;;;;22.10;35.30;;;;;;5059415;28;20038;-76
2023/03/14 13:04:41;;;;;;;;;;;22.10;34.80;;;;;;5064493;28;19927;-72
2023/03/14 13:07:11;;;;;;;;;;;22.10;34.50;;;;;;5099312;27;20354;-72
2023/03/14 13:09:50;;;;;;;;;;;22.10;34.50;;;;;;5067918;28;19928;-75
2023/03/14 13:12:17;;;;;;;;;;;22.10;34.40;;;;;;5101224;27;20275;-74
2023/03/14 13:14:45;;;;;;;;;;;22.10;34.60;;;;;;5103050;27;19931;-74
2023/03/14 13:17:11;;;;;;;;;;;22.10;34.20;;;;;;5058830;28;20432;-72
2023/03/14 13:19:38;;;;;;;;;;;22.00;34.30;;;;;;5066442;28;19943;-72
2023/03/14 13:22:05;;;;;;;;;;;22.00;34.00;;;;;;5071884;28;19924;-71
2023/03/14 13:24:33;;;;;;;;;;;22.00;34.00;;;;;;5067547;28;19994;-70
2023/03/14 13:26:59;;;;;;;;;;;22.00;33.80;;;;;;5072167;28;20439;-72
2023/03/14 13:29:26;;;;;;;;;;;22.00;33.70;;;;;;5075870;28;19944;-77
2023/03/14 13:31:53;;;;;;;;;;;22.00;33.70;;;;;;5064961;28;20386;-77
2023/03/14 13:34:19;;;;;;;;;;;22.00;33.50;;;;;;5059689;28;20031;-76
2023/03/14 13:36:51;;;;;;;;;;;22.00;33.20;;;;;;5060972;28;19928;-74
2023/03/14 13:39:18;;;;;;;;;;;22.00;33.50;;;;;;5101902;27;19931;-76
2023/03/14 13:41:43;;;;;;;;;;;22.00;33.20;;;;;;5066123;28;20048;-76
2023/03/14 13:44:15;;;;;;;;;;;22.00;33.20;;;;;;5062362;28;19984;-77
2023/03/14 13:46:40;;;;;;;;;;;22.00;32.90;;;;;;5065336;28;20061;-79
2023/03/14 13:49:10;;;;;;;;;;;21.90;32.50;;;;;;5059191;28;20345;-77
2023/03/14 13:51:38;;;;;;;;;;;22.00;32.60;;;;;;5060644;28;20163;-78
2023/03/14 13:54:12;;;;;;;;;;;22.00;32.90;;;;;;5065069;28;19968;-79
2023/03/14 13:56:37;;;;;;;;;;;22.00;32.50;;;;;;5067377;28;20503;-74
2023/03/14 13:59:03;;;;;;;;;;;22.00;32.60;;;;;;5058966;28;19927;-67
2023/03/14 14:01:32;;;;;;;;;;;21.90;32.50;;;;;;5055701;28;20140;-68
2023/03/14 14:04:01;;;;;;;;;;;21.90;32.60;;;;;;5088707;28;20029;-69
2023/03/14 14:09:27;;;;;;;;;;;21.90;31.30;;;;;;5080605;27;19920;-69
2023/03/14 14:14:36;;;;;;;;;;;21.70;31.40;;;;;;5081146;27;19924;-67
2023/03/14 14:17:04;;;;;;;;;;;21.80;31.40;;;;;;5073666;28;20931;-67
2023/03/14 14:19:32;;;;;;;;;;;21.70;31.60;;;;;;5073623;28;19920;-67
2023/03/14 14:21:58;;;;;;;;;;;21.70;31.70;;;;;;5088766;28;20109;-67
2023/03/14 14:24:24;;;;;;;;;;;21.70;31.40;;;;;;5105670;28;19943;-66
2023/03/14 14:26:51;;;;;;;;;;;21.70;31.30;;;;;;5075386;28;19920;-67
2023/03/14 14:29:23;;;;;;;;;;;21.70;31.10;;;;;;5078671;28;19931;-67
2023/03/14 14:31:58;;;;;;;;;;;21.70;31.00;;;;;;5078987;28;19999;-67
2023/03/14 14:34:25;;;;;;;;;;;21.60;30.90;;;;;;5074457;28;19925;-67
2023/03/14 14:36:54;;;;;;;;;;;21.60;30.80;;;;;;5078286;28;19929;-66
2023/03/14 14:39:22;;;;;;;;;;;21.60;30.90;;;;;;5077835;28;19931;-67
2023/03/14 14:41:49;;;;;;;;;;;21.60;30.90;;;;;;5077851;28;19931;-67
2023/03/14 14:44:16;;;;;;;;;;;21.70;30.90;;;;;;5109782;28;19920;-67
2023/03/14 14:46:42;;;;;;;;;;;21.70;30.90;;;;;;5080913;28;19920;-70
2023/03/14 14:49:10;;;;;;;;;;;21.70;30.50;;;;;;5077141;28;19966;-72
2023/03/14 14:51:44;;;;;;;;;;;21.70;30.60;;;;;;5075157;28;19928;-68
2023/03/14 14:54:13;;;;;;;;;;;21.70;30.60;;;;;;5094620;28;19925;-70
2023/03/14 14:56:39;;;;;;;;;;;21.80;30.40;;;;;;5078734;28;19920;-70
2023/03/14 14:59:06;;;;;;;;;;;21.80;30.50;;;;;;5083669;28;20011;-70